sensor_id;sensor_type;location;lat;lon;timestamp;pressure;altitude;pressure_sealevel;temperature;humidity
12897;BME280;6516;35.028;32.372;2023-07-24T00:02:06;98963.38;;;32.38;37.79
12897;BME280;6516;35.028;32.372;2023-07-24T00:04:34;98967.97;;;32.37;37.90
12897;BME280;6516;35.028;32.372;2023-07-24T00:07:02;98965.81;;;32.54;38.39
12897;BME280;6516;35.028;32.372;2023-07-24T00:09:31;98958.72;;;32.17;38.52
12897;BME280;6516;35.028;32.372;2023-07-24T00:11:59;98969.00;;;32.01;39.03
12897;BME280;6516;35.028;32.372;2023-07-24T00:14:27;98959.81;;;32.23;38.92
12897;BME280;6516;35.028;32.372;2023-07-24T00:16:54;98965.19;;;32.16;38.82
12897;BME280;6516;35.028;32.372;2023-07-24T00:19:22;98964.50;;;31.50;40.03
12897;BME280;6516;35.028;32.372;2023-07-24T00:21:50;98964.13;;;31.82;39.87
12897;BME280;6516;35.028;32.372;2023-07-24T00:24:18;98966.91;;;32.03;39.63
12897;BME280;6516;35.028;32.372;2023-07-24T00:26:47;98981.69;;;31.79;40.26
12897;BME280;6516;35.028;32.372;2023-07-24T00:29:15;98980.88;;;31.79;41.62
12897;BME280;6516;35.028;32.372;2023-07-24T00:31:42;98977.66;;;31.90;42.01
12897;BME280;6516;35.028;32.372;2023-07-24T00:34:10;98968.22;;;32.07;42.29
12897;BME280;6516;35.028;32.372;2023-07-24T00:36:43;98954.09;;;32.18;39.83
12897;BME280;6516;35.028;32.372;2023-07-24T00:39:11;98964.13;;;32.32;39.29
12897;BME280;6516;35.028;32.372;2023-07-24T00:41:41;98972.44;;;32.45;38.67
12897;BME280;6516;35.028;32.372;2023-07-24T00:44:11;98965.84;;;32.33;39.83
12897;BME280;6516;35.028;32.372;2023-07-24T00:46:39;98966.75;;;32.40;42.22
12897;BME280;6516;35.028;32.372;2023-07-24T00:49:07;98963.31;;;32.17;38.95
12897;BME280;6516;35.028;32.372;2023-07-24T00:51:36;98967.06;;;32.16;39.33
12897;BME280;6516;35.028;32.372;2023-07-24T00:54:06;98963.56;;;32.22;38.42
12897;BME280;6516;35.028;32.372;2023-07-24T00:56:34;98948.38;;;32.27;38.29
12897;BME280;6516;35.028;32.372;2023-07-24T00:59:02;98965.84;;;32.33;38.22
12897;BME280;6516;35.028;32.372;2023-07-24T01:01:31;98979.66;;;32.17;39.07
12897;BME280;6516;35.028;32.372;2023-07-24T01:03:59;98963.69;;;32.14;40.36
12897;BME280;6516;35.028;32.372;2023-07-24T01:06:29;98950.28;;;32.12;40.09
12897;BME280;6516;35.028;32.372;2023-07-24T01:08:57;98951.69;;;32.08;39.75
12897;BME280;6516;35.028;32.372;2023-07-24T01:11:28;98957.00;;;32.16;39.63
12897;BME280;6516;35.028;32.372;2023-07-24T01:14:06;98951.81;;;32.36;40.45
12897;BME280;6516;35.028;32.372;2023-07-24T01:16:41;98952.72;;;32.43;40.69
12897;BME280;6516;35.028;32.372;2023-07-24T01:19:12;98952.59;;;32.51;40.13
12897;BME280;6516;35.028;32.372;2023-07-24T01:21:59;98952.03;;;32.20;40.34
12897;BME280;6516;35.028;32.372;2023-07-24T01:24:35;98950.78;;;31.87;41.64
12897;BME280;6516;35.028;32.372;2023-07-24T01:27:07;98944.44;;;32.15;41.58
12897;BME280;6516;35.028;32.372;2023-07-24T01:29:35;98954.28;;;32.31;40.93
12897;BME280;6516;35.028;32.372;2023-07-24T01:32:03;98953.91;;;32.34;40.74
12897;BME280;6516;35.028;32.372;2023-07-24T01:34:31;98949.94;;;32.22;41.08
12897;BME280;6516;35.028;32.372;2023-07-24T01:36:59;98958.56;;;32.25;41.71
12897;BME280;6516;35.028;32.372;2023-07-24T01:39:27;98965.84;;;32.18;41.65
12897;BME280;6516;35.028;32.372;2023-07-24T01:41:56;98964.47;;;32.08;42.25
12897;BME280;6516;35.028;32.372;2023-07-24T01:44:25;98963.00;;;31.91;42.79
12897;BME280;6516;35.028;32.372;2023-07-24T01:46:53;98965.84;;;31.83;42.85
12897;BME280;6516;35.028;32.372;2023-07-24T01:49:21;98956.03;;;31.88;43.34
12897;BME280;6516;35.028;32.372;2023-07-24T01:51:48;98961.22;;;31.98;42.14
12897;BME280;6516;35.028;32.372;2023-07-24T01:54:16;98958.78;;;31.88;42.31
12897;BME280;6516;35.028;32.372;2023-07-24T01:56:44;98964.31;;;31.95;42.48
12897;BME280;6516;35.028;32.372;2023-07-24T01:59:12;98966.84;;;31.96;42.60
12897;BME280;6516;35.028;32.372;2023-07-24T02:01:41;98973.78;;;31.99;42.53
12897;BME280;6516;35.028;32.372;2023-07-24T02:04:09;98970.72;;;31.87;42.91
12897;BME280;6516;35.028;32.372;2023-07-24T02:06:36;98980.19;;;31.91;43.28
12897;BME280;6516;35.028;32.372;2023-07-24T02:09:04;98975.59;;;31.92;42.64
12897;BME280;6516;35.028;32.372;2023-07-24T02:11:32;98969.97;;;31.79;43.28
12897;BME280;6516;35.028;32.372;2023-07-24T02:14:00;98975.69;;;31.84;43.49
12897;BME280;6516;35.028;32.372;2023-07-24T02:16:28;98961.75;;;31.93;42.74
12897;BME280;6516;35.028;32.372;2023-07-24T02:18:57;98967.78;;;32.03;43.09
12897;BME280;6516;35.028;32.372;2023-07-24T02:21:25;98969.28;;;32.06;42.65
12897;BME280;6516;35.028;32.372;2023-07-24T02:23:52;98968.75;;;31.81;43.14
12897;BME280;6516;35.028;32.372;2023-07-24T02:26:19;98970.78;;;31.94;43.14
12897;BME280;6516;35.028;32.372;2023-07-24T02:28:47;98959.72;;;32.16;42.21
12897;BME280;6516;35.028;32.372;2023-07-24T02:31:15;98964.34;;;32.16;42.48
12897;BME280;6516;35.028;32.372;2023-07-24T02:33:43;98971.91;;;31.70;42.67
12897;BME280;6516;35.028;32.372;2023-07-24T02:36:13;98975.41;;;31.64;43.25
12897;BME280;6516;35.028;32.372;2023-07-24T02:38:41;98983.69;;;31.42;42.92
12897;BME280;6516;35.028;32.372;2023-07-24T02:41:09;98974.91;;;31.17;43.83
12897;BME280;6516;35.028;32.372;2023-07-24T02:43:37;98977.53;;;31.25;43.57
12897;BME280;6516;35.028;32.372;2023-07-24T02:46:05;98983.00;;;31.40;43.04
12897;BME280;6516;35.028;32.372;2023-07-24T02:48:33;98984.03;;;31.68;42.05
12897;BME280;6516;35.028;32.372;2023-07-24T02:51:00;98979.47;;;31.83;41.15
12897;BME280;6516;35.028;32.372;2023-07-24T02:53:30;98977.19;;;31.86;41.10
12897;BME280;6516;35.028;32.372;2023-07-24T02:55:58;98980.28;;;31.98;40.83
12897;BME280;6516;35.028;32.372;2023-07-24T02:58:25;98989.50;;;32.18;40.77
12897;BME280;6516;35.028;32.372;2023-07-24T03:00:53;98988.09;;;32.22;40.53
12897;BME280;6516;35.028;32.372;2023-07-24T03:03:22;98988.66;;;32.32;40.17
12897;BME280;6516;35.028;32.372;2023-07-24T03:05:50;98992.66;;;32.50;40.25
12897;BME280;6516;35.028;32.372;2023-07-24T03:08:18;98991.09;;;32.62;39.96
12897;BME280;6516;35.028;32.372;2023-07-24T03:10:47;98992.34;;;32.60;39.93
12897;BME280;6516;35.028;32.372;2023-07-24T03:13:15;98986.53;;;32.69;39.88
12897;BME280;6516;35.028;32.372;2023-07-24T03:15:43;98980.91;;;32.71;39.83
12897;BME280;6516;35.028;32.372;2023-07-24T03:18:18;98991.53;;;32.80;40.09
12897;BME280;6516;35.028;32.372;2023-07-24T03:20:46;98989.72;;;32.73;40.10
12897;BME280;6516;35.028;32.372;2023-07-24T03:23:13;98993.06;;;32.89;39.91
12897;BME280;6516;35.028;32.372;2023-07-24T03:25:41;98988.50;;;32.96;39.65
12897;BME280;6516;35.028;32.372;2023-07-24T03:28:11;98981.41;;;33.02;39.99
12897;BME280;6516;35.028;32.372;2023-07-24T03:30:39;98989.59;;;33.02;40.34
12897;BME280;6516;35.028;32.372;2023-07-24T03:33:06;98982.34;;;33.15;40.22
12897;BME280;6516;35.028;32.372;2023-07-24T03:35:34;98991.50;;;33.29;39.62
12897;BME280;6516;35.028;32.372;2023-07-24T03:38:02;98986.31;;;33.34;40.25
12897;BME280;6516;35.028;32.372;2023-07-24T03:40:30;98986.97;;;33.42;40.30
12897;BME280;6516;35.028;32.372;2023-07-24T03:42:58;98989.75;;;33.49;40.17
12897;BME280;6516;35.028;32.372;2023-07-24T03:45:27;98983.31;;;33.63;40.21
12897;BME280;6516;35.028;32.372;2023-07-24T03:47:55;98976.53;;;33.80;39.50
12897;BME280;6516;35.028;32.372;2023-07-24T03:50:23;98971.97;;;34.00;38.63
12897;BME280;6516;35.028;32.372;2023-07-24T03:52:51;98972.50;;;34.23;38.79
12897;BME280;6516;35.028;32.372;2023-07-24T03:55:18;98976.47;;;34.27;38.60
12897;BME280;6516;35.028;32.372;2023-07-24T03:57:46;98974.25;;;34.50;38.13
12897;BME280;6516;35.028;32.372;2023-07-24T04:00:14;98977.25;;;34.62;37.94
12897;BME280;6516;35.028;32.372;2023-07-24T04:02:46;98978.50;;;34.72;38.16
12897;BME280;6516;35.028;32.372;2023-07-24T04:05:14;98979.81;;;34.83;37.73
12897;BME280;6516;35.028;32.372;2023-07-24T04:07:43;98970.75;;;35.02;37.56
12897;BME280;6516;35.028;32.372;2023-07-24T04:10:10;98974.75;;;35.12;37.82
12897;BME280;6516;35.028;32.372;2023-07-24T04:12:38;98970.56;;;35.29;37.39
12897;BME280;6516;35.028;32.372;2023-07-24T04:15:07;98957.28;;;35.39;36.62
12897;BME280;6516;35.028;32.372;2023-07-24T04:17:35;98959.38;;;35.50;36.75
12897;BME280;6516;35.028;32.372;2023-07-24T04:20:07;98957.03;;;35.60;36.01
12897;BME280;6516;35.028;32.372;2023-07-24T04:22:35;98962.28;;;35.68;36.95
12897;BME280;6516;35.028;32.372;2023-07-24T04:25:04;98954.41;;;35.91;36.40
12897;BME280;6516;35.028;32.372;2023-07-24T04:27:32;98955.84;;;36.00;35.65
12897;BME280;6516;35.028;32.372;2023-07-24T04:30:00;98954.72;;;36.14;35.31
12897;BME280;6516;35.028;32.372;2023-07-24T04:32:28;98954.06;;;36.25;34.87
12897;BME280;6516;35.028;32.372;2023-07-24T04:34:56;98954.38;;;36.42;34.86
12897;BME280;6516;35.028;32.372;2023-07-24T04:37:25;98944.81;;;36.51;34.72
12897;BME280;6516;35.028;32.372;2023-07-24T04:39:53;98952.75;;;36.65;33.99
12897;BME280;6516;35.028;32.372;2023-07-24T04:42:21;98949.19;;;36.89;33.81
12897;BME280;6516;35.028;32.372;2023-07-24T04:44:48;98949.38;;;37.19;32.19
12897;BME280;6516;35.028;32.372;2023-07-24T04:47:21;98955.47;;;37.45;31.87
12897;BME280;6516;35.028;32.372;2023-07-24T04:49:49;98946.78;;;37.66;30.97
12897;BME280;6516;35.028;32.372;2023-07-24T04:52:16;98952.66;;;37.88;30.23
12897;BME280;6516;35.028;32.372;2023-07-24T04:54:46;98947.47;;;37.98;29.44
12897;BME280;6516;35.028;32.372;2023-07-24T04:57:13;98957.91;;;38.25;29.49
12897;BME280;6516;35.028;32.372;2023-07-24T04:59:41;98953.09;;;38.80;29.08
12897;BME280;6516;35.028;32.372;2023-07-24T05:02:09;98943.28;;;39.48;27.99
12897;BME280;6516;35.028;32.372;2023-07-24T05:04:37;98939.56;;;40.05;26.62
12897;BME280;6516;35.028;32.372;2023-07-24T05:07:04;98943.09;;;40.57;26.76
12897;BME280;6516;35.028;32.372;2023-07-24T05:09:32;98942.00;;;41.19;27.34
12897;BME280;6516;35.028;32.372;2023-07-24T05:12:02;98941.13;;;41.68;26.54
12897;BME280;6516;35.028;32.372;2023-07-24T05:14:30;98942.13;;;42.00;25.39
12897;BME280;6516;35.028;32.372;2023-07-24T05:16:57;98941.03;;;42.22;25.96
12897;BME280;6516;35.028;32.372;2023-07-24T05:19:26;98940.56;;;42.30;24.71
12897;BME280;6516;35.028;32.372;2023-07-24T05:21:54;98943.56;;;42.77;24.42
12897;BME280;6516;35.028;32.372;2023-07-24T05:24:22;98940.88;;;42.87;25.66
12897;BME280;6516;35.028;32.372;2023-07-24T05:26:49;98938.06;;;42.82;25.41
12897;BME280;6516;35.028;32.372;2023-07-24T05:29:19;98939.03;;;42.66;25.24
12897;BME280;6516;35.028;32.372;2023-07-24T05:31:47;98943.94;;;42.59;25.18
12897;BME280;6516;35.028;32.372;2023-07-24T05:34:15;98937.31;;;42.60;25.13
12897;BME280;6516;35.028;32.372;2023-07-24T05:36:43;98941.38;;;42.52;25.20
12897;BME280;6516;35.028;32.372;2023-07-24T05:39:11;98946.00;;;42.47;24.47
12897;BME280;6516;35.028;32.372;2023-07-24T05:41:39;98941.56;;;42.46;24.75
12897;BME280;6516;35.028;32.372;2023-07-24T05:44:07;98943.63;;;42.55;24.60
12897;BME280;6516;35.028;32.372;2023-07-24T05:46:36;98941.00;;;42.44;24.59
12897;BME280;6516;35.028;32.372;2023-07-24T05:49:04;98946.81;;;42.42;24.91
12897;BME280;6516;35.028;32.372;2023-07-24T05:51:32;98942.88;;;42.17;25.25
12897;BME280;6516;35.028;32.372;2023-07-24T05:53:59;98945.00;;;42.31;24.73
12897;BME280;6516;35.028;32.372;2023-07-24T05:56:27;98948.75;;;41.99;25.31
12897;BME280;6516;35.028;32.372;2023-07-24T05:58:55;98941.66;;;41.86;25.65
12897;BME280;6516;35.028;32.372;2023-07-24T06:01:23;98940.25;;;41.84;26.15
12897;BME280;6516;35.028;32.372;2023-07-24T06:03:52;98943.59;;;41.86;26.08
12897;BME280;6516;35.028;32.372;2023-07-24T06:06:20;98934.41;;;41.64;26.00
12897;BME280;6516;35.028;32.372;2023-07-24T06:08:48;98932.44;;;41.43;26.98
12897;BME280;6516;35.028;32.372;2023-07-24T06:11:16;98941.34;;;41.45;26.12
12897;BME280;6516;35.028;32.372;2023-07-24T06:13:44;98943.00;;;41.46;26.74
12897;BME280;6516;35.028;32.372;2023-07-24T06:16:12;98945.81;;;41.67;26.82
12897;BME280;6516;35.028;32.372;2023-07-24T06:18:40;98940.28;;;41.67;26.57
12897;BME280;6516;35.028;32.372;2023-07-24T06:21:10;98942.13;;;41.62;26.34
12897;BME280;6516;35.028;32.372;2023-07-24T06:23:37;98945.06;;;41.72;25.96
12897;BME280;6516;35.028;32.372;2023-07-24T06:26:05;98939.13;;;41.85;26.64
12897;BME280;6516;35.028;32.372;2023-07-24T06:28:33;98944.56;;;41.96;26.81
12897;BME280;6516;35.028;32.372;2023-07-24T06:31:01;98943.53;;;42.24;26.44
12897;BME280;6516;35.028;32.372;2023-07-24T06:33:28;98949.31;;;42.44;26.35
12897;BME280;6516;35.028;32.372;2023-07-24T06:35:56;98953.69;;;42.18;26.56
12897;BME280;6516;35.028;32.372;2023-07-24T06:38:26;98947.72;;;42.26;27.04
12897;BME280;6516;35.028;32.372;2023-07-24T06:40:54;98949.63;;;42.04;28.34
12897;BME280;6516;35.028;32.372;2023-07-24T06:43:22;98955.03;;;42.16;28.20
12897;BME280;6516;35.028;32.372;2023-07-24T06:45:50;98949.59;;;42.21;28.80
12897;BME280;6516;35.028;32.372;2023-07-24T06:48:19;98956.06;;;42.10;28.79
12897;BME280;6516;35.028;32.372;2023-07-24T06:50:48;98958.28;;;42.08;29.96
12897;BME280;6516;35.028;32.372;2023-07-24T06:53:16;98962.28;;;41.79;30.88
12897;BME280;6516;35.028;32.372;2023-07-24T06:55:45;98962.38;;;41.46;31.08
12897;BME280;6516;35.028;32.372;2023-07-24T06:58:13;98967.22;;;41.06;31.18
12897;BME280;6516;35.028;32.372;2023-07-24T07:00:41;98965.13;;;41.13;30.25
12897;BME280;6516;35.028;32.372;2023-07-24T07:03:09;98963.13;;;41.08;30.85
12897;BME280;6516;35.028;32.372;2023-07-24T07:05:36;98967.53;;;41.26;31.30
12897;BME280;6516;35.028;32.372;2023-07-24T07:08:04;98969.00;;;41.45;31.79
12897;BME280;6516;35.028;32.372;2023-07-24T07:10:32;98964.44;;;41.55;31.83
12897;BME280;6516;35.028;32.372;2023-07-24T07:13:01;98960.41;;;41.63;31.36
12897;BME280;6516;35.028;32.372;2023-07-24T07:15:29;98958.34;;;41.75;31.82
12897;BME280;6516;35.028;32.372;2023-07-24T07:17:57;98961.03;;;41.70;32.18
12897;BME280;6516;35.028;32.372;2023-07-24T07:20:25;98954.81;;;41.58;32.06
12897;BME280;6516;35.028;32.372;2023-07-24T07:22:52;98957.94;;;41.83;30.89
12897;BME280;6516;35.028;32.372;2023-07-24T07:25:20;98968.50;;;42.07;30.00
12897;BME280;6516;35.028;32.372;2023-07-24T07:27:48;98960.25;;;42.12;30.54
12897;BME280;6516;35.028;32.372;2023-07-24T07:30:17;98958.53;;;42.06;30.31
12897;BME280;6516;35.028;32.372;2023-07-24T07:32:45;98965.22;;;42.32;30.82
12897;BME280;6516;35.028;32.372;2023-07-24T07:35:14;98957.84;;;42.37;28.87
12897;BME280;6516;35.028;32.372;2023-07-24T07:37:42;98960.53;;;42.59;27.20
12897;BME280;6516;35.028;32.372;2023-07-24T07:40:10;98960.03;;;42.62;26.87
12897;BME280;6516;35.028;32.372;2023-07-24T07:42:38;98953.56;;;42.78;26.31
12897;BME280;6516;35.028;32.372;2023-07-24T07:45:07;98947.03;;;43.20;26.70
12897;BME280;6516;35.028;32.372;2023-07-24T07:47:37;98943.38;;;43.51;23.97
12897;BME280;6516;35.028;32.372;2023-07-24T07:50:06;98949.31;;;43.75;25.42
12897;BME280;6516;35.028;32.372;2023-07-24T07:52:34;98953.28;;;43.84;25.50
12897;BME280;6516;35.028;32.372;2023-07-24T07:55:02;98948.34;;;43.91;23.21
12897;BME280;6516;35.028;32.372;2023-07-24T07:57:32;98945.94;;;44.09;22.75
12897;BME280;6516;35.028;32.372;2023-07-24T08:00:01;98943.94;;;44.00;24.52
12897;BME280;6516;35.028;32.372;2023-07-24T08:02:29;98940.03;;;43.96;23.51
12897;BME280;6516;35.028;32.372;2023-07-24T08:04:59;98936.09;;;43.87;23.43
12897;BME280;6516;35.028;32.372;2023-07-24T08:07:27;98942.28;;;43.99;24.16
12897;BME280;6516;35.028;32.372;2023-07-24T08:09:54;98933.63;;;43.95;24.50
12897;BME280;6516;35.028;32.372;2023-07-24T08:12:22;98941.81;;;43.70;25.31
12897;BME280;6516;35.028;32.372;2023-07-24T08:14:50;98937.03;;;43.61;25.37
12897;BME280;6516;35.028;32.372;2023-07-24T08:17:18;98942.69;;;43.76;25.28
12897;BME280;6516;35.028;32.372;2023-07-24T08:19:46;98945.06;;;43.99;25.32
12897;BME280;6516;35.028;32.372;2023-07-24T08:22:16;98927.88;;;44.12;25.68
12897;BME280;6516;35.028;32.372;2023-07-24T08:24:45;98932.84;;;44.00;24.85
12897;BME280;6516;35.028;32.372;2023-07-24T08:27:16;98931.72;;;44.06;26.46
12897;BME280;6516;35.028;32.372;2023-07-24T08:29:43;98933.31;;;43.87;27.38
12897;BME280;6516;35.028;32.372;2023-07-24T08:32:11;98934.91;;;43.73;27.03
12897;BME280;6516;35.028;32.372;2023-07-24T08:34:39;98938.84;;;43.82;27.27
12897;BME280;6516;35.028;32.372;2023-07-24T08:37:08;98932.28;;;44.03;27.62
12897;BME280;6516;35.028;32.372;2023-07-24T08:39:38;98931.19;;;44.04;27.42
12897;BME280;6516;35.028;32.372;2023-07-24T08:42:09;98927.81;;;43.97;27.52
12897;BME280;6516;35.028;32.372;2023-07-24T08:44:38;98930.16;;;44.25;27.46
12897;BME280;6516;35.028;32.372;2023-07-24T08:47:10;98921.81;;;44.20;27.50
12897;BME280;6516;35.028;32.372;2023-07-24T08:49:39;98930.22;;;44.35;27.53
12897;BME280;6516;35.028;32.372;2023-07-24T08:52:07;98923.00;;;44.49;27.78
12897;BME280;6516;35.028;32.372;2023-07-24T08:54:36;98924.81;;;44.08;27.10
12897;BME280;6516;35.028;32.372;2023-07-24T08:57:06;98918.53;;;44.38;26.95
12897;BME280;6516;35.028;32.372;2023-07-24T08:59:34;98913.31;;;44.66;26.32
12897;BME280;6516;35.028;32.372;2023-07-24T09:02:02;98910.53;;;44.61;26.66
12897;BME280;6516;35.028;32.372;2023-07-24T09:04:31;98903.88;;;44.52;26.71
12897;BME280;6516;35.028;32.372;2023-07-24T09:06:59;98909.66;;;44.46;26.31
12897;BME280;6516;35.028;32.372;2023-07-24T09:09:29;98895.00;;;44.60;25.22
12897;BME280;6516;35.028;32.372;2023-07-24T09:11:59;98896.31;;;44.38;25.64
12897;BME280;6516;35.028;32.372;2023-07-24T09:14:28;98878.25;;;44.40;25.40
12897;BME280;6516;35.028;32.372;2023-07-24T09:17:04;98887.78;;;44.59;23.42
12897;BME280;6516;35.028;32.372;2023-07-24T09:19:32;98884.72;;;44.86;24.22
12897;BME280;6516;35.028;32.372;2023-07-24T09:22:10;98889.19;;;45.07;24.77
12897;BME280;6516;35.028;32.372;2023-07-24T09:24:50;98885.25;;;45.33;21.61
12897;BME280;6516;35.028;32.372;2023-07-24T09:27:19;98877.19;;;45.11;22.01
12897;BME280;6516;35.028;32.372;2023-07-24T09:29:48;98866.91;;;45.17;22.02
12897;BME280;6516;35.028;32.372;2023-07-24T09:32:19;98866.31;;;45.45;21.87
12897;BME280;6516;35.028;32.372;2023-07-24T09:34:48;98870.69;;;45.61;22.32
12897;BME280;6516;35.028;32.372;2023-07-24T09:37:26;98870.50;;;45.38;22.08
12897;BME280;6516;35.028;32.372;2023-07-24T09:39:57;98859.09;;;45.39;22.28
12897;BME280;6516;35.028;32.372;2023-07-24T09:42:31;98864.53;;;45.74;21.00
12897;BME280;6516;35.028;32.372;2023-07-24T09:44:59;98864.25;;;45.76;22.07
12897;BME280;6516;35.028;32.372;2023-07-24T09:47:27;98863.88;;;45.97;20.32
12897;BME280;6516;35.028;32.372;2023-07-24T09:49:55;98861.41;;;45.96;20.91
12897;BME280;6516;35.028;32.372;2023-07-24T09:52:24;98858.34;;;45.87;20.72
12897;BME280;6516;35.028;32.372;2023-07-24T09:54:59;98852.16;;;46.00;20.23
12897;BME280;6516;35.028;32.372;2023-07-24T09:57:34;98862.38;;;46.20;20.70
12897;BME280;6516;35.028;32.372;2023-07-24T10:00:05;98857.31;;;46.27;20.75
12897;BME280;6516;35.028;32.372;2023-07-24T10:02:35;98857.59;;;46.30;20.27
12897;BME280;6516;35.028;32.372;2023-07-24T10:05:04;98850.31;;;46.29;20.09
12897;BME280;6516;35.028;32.372;2023-07-24T10:07:33;98845.72;;;46.15;20.52
12897;BME280;6516;35.028;32.372;2023-07-24T10:10:01;98846.41;;;46.40;19.94
12897;BME280;6516;35.028;32.372;2023-07-24T10:12:29;98839.00;;;46.59;20.09
12897;BME280;6516;35.028;32.372;2023-07-24T10:15:00;98846.00;;;46.90;18.88
12897;BME280;6516;35.028;32.372;2023-07-24T10:17:36;98836.66;;;46.76;19.33
12897;BME280;6516;35.028;32.372;2023-07-24T10:20:05;98837.88;;;46.60;18.77
12897;BME280;6516;35.028;32.372;2023-07-24T10:22:35;98829.53;;;46.55;19.23
12897;BME280;6516;35.028;32.372;2023-07-24T10:25:07;98827.41;;;46.42;19.52
12897;BME280;6516;35.028;32.372;2023-07-24T10:27:39;98831.25;;;46.51;19.43
12897;BME280;6516;35.028;32.372;2023-07-24T10:30:14;98832.75;;;46.72;19.79
12897;BME280;6516;35.028;32.372;2023-07-24T10:32:46;98828.97;;;46.20;20.68
12897;BME280;6516;35.028;32.372;2023-07-24T10:35:15;98822.66;;;45.99;21.36
12897;BME280;6516;35.028;32.372;2023-07-24T10:37:43;98834.41;;;45.91;22.23
12897;BME280;6516;35.028;32.372;2023-07-24T10:40:19;98827.13;;;45.95;22.29
12897;BME280;6516;35.028;32.372;2023-07-24T10:42:59;98826.00;;;46.01;22.98
12897;BME280;6516;35.028;32.372;2023-07-24T10:45:38;98822.31;;;45.57;23.00
12897;BME280;6516;35.028;32.372;2023-07-24T10:48:13;98820.09;;;45.49;23.59
12897;BME280;6516;35.028;32.372;2023-07-24T10:50:42;98818.13;;;45.60;23.03
12897;BME280;6516;35.028;32.372;2023-07-24T10:53:11;98826.97;;;45.72;22.82
12897;BME280;6516;35.028;32.372;2023-07-24T10:55:41;98824.47;;;45.70;23.66
12897;BME280;6516;35.028;32.372;2023-07-24T10:58:10;98824.63;;;45.35;25.03
12897;BME280;6516;35.028;32.372;2023-07-24T11:00:40;98834.91;;;45.30;25.77
12897;BME280;6516;35.028;32.372;2023-07-24T11:03:09;98822.66;;;45.20;26.28
12897;BME280;6516;35.028;32.372;2023-07-24T11:05:39;98829.63;;;45.23;26.23
12897;BME280;6516;35.028;32.372;2023-07-24T11:08:10;98828.84;;;45.02;26.69
12897;BME280;6516;35.028;32.372;2023-07-24T11:10:45;98829.09;;;44.51;26.98
12897;BME280;6516;35.028;32.372;2023-07-24T11:13:13;98829.63;;;44.43;27.62
12897;BME280;6516;35.028;32.372;2023-07-24T11:15:43;98820.75;;;44.21;27.89
12897;BME280;6516;35.028;32.372;2023-07-24T11:18:12;98821.28;;;44.18;28.03
12897;BME280;6516;35.028;32.372;2023-07-24T11:20:44;98827.97;;;44.32;26.42
12897;BME280;6516;35.028;32.372;2023-07-24T11:23:13;98835.91;;;43.88;27.82
12897;BME280;6516;35.028;32.372;2023-07-24T11:25:42;98823.88;;;43.68;26.97
12897;BME280;6516;35.028;32.372;2023-07-24T11:28:11;98826.19;;;43.81;27.27
12897;BME280;6516;35.028;32.372;2023-07-24T11:30:41;98827.06;;;44.01;26.64
12897;BME280;6516;35.028;32.372;2023-07-24T11:33:12;98817.41;;;44.19;27.08
12897;BME280;6516;35.028;32.372;2023-07-24T11:35:43;98822.34;;;44.02;28.05
12897;BME280;6516;35.028;32.372;2023-07-24T11:38:11;98814.59;;;44.04;28.70
12897;BME280;6516;35.028;32.372;2023-07-24T11:40:41;98821.25;;;44.13;26.78
12897;BME280;6516;35.028;32.372;2023-07-24T11:43:15;98820.72;;;44.16;26.38
12897;BME280;6516;35.028;32.372;2023-07-24T11:45:46;98822.97;;;44.24;25.47
12897;BME280;6516;35.028;32.372;2023-07-24T11:48:14;98827.91;;;44.07;27.20
12897;BME280;6516;35.028;32.372;2023-07-24T11:50:43;98817.03;;;43.90;25.01
12897;BME280;6516;35.028;32.372;2023-07-24T11:53:22;98830.91;;;43.95;25.68
12897;BME280;6516;35.028;32.372;2023-07-24T11:55:52;98823.44;;;43.96;26.21
12897;BME280;6516;35.028;32.372;2023-07-24T11:58:22;98816.25;;;44.05;25.45
12897;BME280;6516;35.028;32.372;2023-07-24T12:00:54;98817.63;;;44.12;25.73
12897;BME280;6516;35.028;32.372;2023-07-24T12:03:24;98815.47;;;44.24;25.72
12897;BME280;6516;35.028;32.372;2023-07-24T12:05:53;98818.47;;;44.03;26.47
12897;BME280;6516;35.028;32.372;2023-07-24T12:08:30;98817.91;;;44.06;27.24
12897;BME280;6516;35.028;32.372;2023-07-24T12:10:59;98824.22;;;43.86;25.39
12897;BME280;6516;35.028;32.372;2023-07-24T12:13:27;98823.03;;;43.62;25.96
12897;BME280;6516;35.028;32.372;2023-07-24T12:15:58;98822.28;;;43.77;26.23
12897;BME280;6516;35.028;32.372;2023-07-24T12:18:26;98821.66;;;43.75;26.23
12897;BME280;6516;35.028;32.372;2023-07-24T12:20:54;98820.63;;;43.81;26.86
12897;BME280;6516;35.028;32.372;2023-07-24T12:23:22;98824.53;;;43.90;27.75
12897;BME280;6516;35.028;32.372;2023-07-24T12:25:50;98819.81;;;43.85;25.88
12897;BME280;6516;35.028;32.372;2023-07-24T12:28:18;98818.44;;;43.93;27.02
12897;BME280;6516;35.028;32.372;2023-07-24T12:30:46;98819.19;;;43.73;27.04
12897;BME280;6516;35.028;32.372;2023-07-24T12:33:16;98821.66;;;43.65;26.73
12897;BME280;6516;35.028;32.372;2023-07-24T12:35:44;98817.72;;;43.51;27.73
12897;BME280;6516;35.028;32.372;2023-07-24T12:38:11;98822.44;;;43.50;26.49
12897;BME280;6516;35.028;32.372;2023-07-24T12:40:39;98824.91;;;43.52;28.15
12897;BME280;6516;35.028;32.372;2023-07-24T12:43:07;98818.56;;;43.56;27.52
12897;BME280;6516;35.028;32.372;2023-07-24T12:45:35;98813.34;;;43.18;28.64
12897;BME280;6516;35.028;32.372;2023-07-24T12:48:03;98813.06;;;43.15;28.90
12897;BME280;6516;35.028;32.372;2023-07-24T12:50:33;98812.78;;;43.16;29.28
12897;BME280;6516;35.028;32.372;2023-07-24T12:53:00;98819.25;;;43.27;29.10
12897;BME280;6516;35.028;32.372;2023-07-24T12:55:28;98807.59;;;43.30;29.50
12897;BME280;6516;35.028;32.372;2023-07-24T12:57:56;98816.19;;;43.28;29.46
12897;BME280;6516;35.028;32.372;2023-07-24T13:00:24;98817.09;;;43.39;28.63
12897;BME280;6516;35.028;32.372;2023-07-24T13:02:52;98815.44;;;43.38;29.19
12897;BME280;6516;35.028;32.372;2023-07-24T13:05:21;98810.09;;;43.31;28.94
12897;BME280;6516;35.028;32.372;2023-07-24T13:07:50;98811.41;;;43.19;28.44
12897;BME280;6516;35.028;32.372;2023-07-24T13:10:18;98800.88;;;43.21;29.23